Terminal Aerodrome Forecast
Issued by NWS

Home | Current Version | Previous Version | Text Only | Print | Product List | Glossary On
Versions: 1 2 3 4 5 6 7 8 9 10 11 12 13
000
FTUS41 KBTV 311720
TAFMSS
TAF
KMSS 311720Z 3118/0118 24011G18KT P6SM SCT070
     FM010000 22005KT P6SM SCT060
     FM010500 22004KT 6SM -SHRA BR SCT035 OVC050
     FM011100 24007KT P6SM BKN050=

USA.gov is the U.S. government's official web portal to all federal, state and local government web resources and services.